Warrenton, Texas
Current Conditions -  °F | °C
As of 5:50 PM on Monday 22 Dec 2014 (Local Time) from K3T5 Reporting Station
Clear Clear  
Wind Chill: 17°   Ceiling: Unl
Heat Index: 17°   Visibility: 10mi
Dew Point: 14°   Wind: 5mph
Humidity: 81%   Direction: 190°S
Pressure: 29.62"   Gusts: NA
Location:  30.0108°N, 96.7162°W
Report Text: K3T5 222350Z AUTO 19004KT 10SM CLR 17/14 A2962 RMK AO2 T01740141 10213 20173
Loading
Personal Weather Stations






























Interactive Weather Map New forecast layout! Learn more

10-Day Weather Forecast

Advertisements
Track Severe Weather on mobile